Aviation Digital Data Service (ADDS)

Output produced by METARs form (1839 UTC 02 October 2022)
found at http://www.aviationweather.gov/metar/data/
 
METAR text: KGYI 021750Z 09003KT 10SM SKC 27/05 A3022
Conditions at: KGYI (SHERMAN/DENISON , TX, US) observed 1750 UTC 02 October 2022
Temperature: 27.0°C (81°F)
Dewpoint: 5.0°C (41°F) [RH = 24%]
Pressure (altimeter): 30.22 inches Hg (1023.5 mb)
Winds: from the E (90 degrees) at 3 MPH (3 knots; 1.5 m/s)
Visibility: 10 or more miles (16+ km)
Ceiling: at least 12,000 feet AGL
Clouds: clear skies
Weather: no significant weather observed at this time